createdAt,value
2022-10-02T00:15:46.208Z,12.80
2022-10-02T00:18:19.355Z,12.80
2022-10-02T00:21:02.011Z,12.80
2022-10-02T00:23:38.130Z,12.80
2022-10-02T00:26:11.656Z,13.00
2022-10-02T00:28:49.015Z,12.80
2022-10-02T00:31:35.261Z,12.80
2022-10-02T00:34:21.948Z,12.80
2022-10-02T00:37:00.539Z,12.80
2022-10-02T00:39:43.734Z,12.80
2022-10-02T00:42:58.058Z,12.80
2022-10-02T00:45:56.206Z,12.80
2022-10-02T00:49:09.888Z,12.90
2022-10-02T00:51:52.555Z,12.90
2022-10-02T00:54:45.956Z,12.90
2022-10-02T00:57:25.352Z,12.90
2022-10-02T01:00:03.627Z,12.90
2022-10-02T01:03:19.940Z,13.00
2022-10-02T01:05:49.802Z,13.00
2022-10-02T01:08:22.098Z,13.00
2022-10-02T01:10:51.442Z,13.00
2022-10-02T01:13:20.142Z,13.10
2022-10-02T01:15:55.295Z,13.10
2022-10-02T01:18:25.525Z,13.20
2022-10-02T01:20:59.017Z,13.20
2022-10-02T01:23:37.527Z,13.30
2022-10-02T01:26:08.494Z,13.30
2022-10-02T01:28:39.718Z,13.40
2022-10-02T01:31:15.552Z,13.50
2022-10-02T01:33:46.438Z,13.50
2022-10-02T01:36:16.776Z,13.50
2022-10-02T01:38:48.060Z,13.40
2022-10-02T01:41:21.182Z,13.40
2022-10-02T01:43:53.980Z,13.40
2022-10-02T01:46:31.795Z,13.40
2022-10-02T01:49:14.959Z,13.40
2022-10-02T01:52:06.998Z,13.40
2022-10-02T01:54:49.163Z,13.60
2022-10-02T01:57:30.198Z,13.30
2022-10-02T02:00:10.279Z,13.30
2022-10-02T02:02:51.726Z,13.30
2022-10-02T02:05:32.658Z,13.20
2022-10-02T02:08:11.597Z,13.20
2022-10-02T02:10:57.976Z,13.20
2022-10-02T02:13:37.680Z,13.10
2022-10-02T02:16:12.842Z,13.10
2022-10-02T02:18:44.974Z,13.10
2022-10-02T02:21:21.988Z,13.10
2022-10-02T02:23:52.945Z,13.10
2022-10-02T02:26:28.732Z,13.10
2022-10-02T02:29:03.357Z,13.10
2022-10-02T02:31:41.674Z,13.10
2022-10-02T02:34:13.583Z,13.10
2022-10-02T02:36:46.411Z,13.10
2022-10-02T02:39:20.127Z,13.10
2022-10-02T02:41:53.184Z,13.10
2022-10-02T02:44:28.297Z,13.10
2022-10-02T02:47:07.129Z,13.10
2022-10-02T02:49:45.632Z,13.10
2022-10-02T02:52:18.481Z,13.10
2022-10-02T02:54:50.707Z,13.10
2022-10-02T02:57:29.804Z,13.10
2022-10-02T03:00:04.650Z,13.20
2022-10-02T03:02:33.293Z,13.20
2022-10-02T03:05:02.057Z,13.20
2022-10-02T03:07:30.906Z,12.90
2022-10-02T03:10:11.128Z,13.20
2022-10-02T03:12:53.099Z,13.20
2022-10-02T03:15:30.059Z,13.20
2022-10-02T03:18:43.228Z,13.20
2022-10-02T03:21:16.263Z,13.20
2022-10-02T03:24:00.109Z,13.20
2022-10-02T03:26:38.350Z,13.10
2022-10-02T03:29:15.908Z,13.20
2022-10-02T03:31:47.619Z,13.20
2022-10-02T03:34:17.749Z,13.20
2022-10-02T03:36:48.245Z,13.20
2022-10-02T03:39:25.874Z,13.30
2022-10-02T03:41:55.980Z,13.30
2022-10-02T03:44:25.102Z,13.30
2022-10-02T03:46:55.402Z,13.30
2022-10-02T03:49:24.181Z,13.30
2022-10-02T03:51:53.633Z,13.30
2022-10-02T03:54:23.556Z,13.40
2022-10-02T03:56:56.769Z,13.40
2022-10-02T03:59:38.609Z,13.30
2022-10-02T04:02:17.369Z,13.40
2022-10-02T04:04:49.393Z,13.40
2022-10-02T04:07:29.409Z,13.40
2022-10-02T04:10:09.122Z,13.40
2022-10-02T04:12:42.958Z,13.40
2022-10-02T04:15:21.849Z,13.50
2022-10-02T04:17:59.051Z,13.50
2022-10-02T04:20:33.610Z,13.60
2022-10-02T04:23:08.301Z,13.50
2022-10-02T04:25:41.567Z,13.60
2022-10-02T04:28:16.238Z,13.60
2022-10-02T04:30:45.020Z,13.60
2022-10-02T04:33:16.991Z,13.60
2022-10-02T04:35:54.839Z,13.60
2022-10-02T04:38:43.987Z,13.60
2022-10-02T04:41:26.987Z,13.60
2022-10-02T04:44:05.885Z,13.60
2022-10-02T04:47:00.906Z,13.60
2022-10-02T04:49:51.959Z,13.60
2022-10-02T04:52:40.781Z,13.50
2022-10-02T04:55:35.126Z,13.50
2022-10-02T04:58:25.075Z,13.50
2022-10-02T05:01:03.166Z,13.40
2022-10-02T05:03:46.987Z,13.40
2022-10-02T05:06:34.227Z,13.40
2022-10-02T05:09:10.999Z,13.70
2022-10-02T05:12:01.670Z,13.40
2022-10-02T05:14:53.900Z,13.40
2022-10-02T05:17:34.144Z,13.40
2022-10-02T05:20:21.137Z,13.40
2022-10-02T05:23:20.720Z,13.40
2022-10-02T05:26:07.078Z,13.50
2022-10-02T05:29:03.654Z,13.50
2022-10-02T05:31:47.668Z,13.50
2022-10-02T05:34:31.428Z,13.60
2022-10-02T05:37:17.841Z,13.60
2022-10-02T05:39:55.954Z,13.60
2022-10-02T05:42:32.028Z,13.60
2022-10-02T05:45:05.897Z,13.60
2022-10-02T05:47:39.929Z,13.60
2022-10-02T05:50:18.199Z,13.60
2022-10-02T05:52:55.383Z,13.60
2022-10-02T05:55:35.684Z,13.60
2022-10-02T05:58:09.882Z,13.60
2022-10-02T06:00:44.719Z,13.70
2022-10-02T06:03:21.270Z,13.50
2022-10-02T06:05:55.606Z,13.90
2022-10-02T06:08:32.033Z,13.70
2022-10-02T06:11:09.381Z,13.70
2022-10-02T06:13:45.647Z,13.80
2022-10-02T06:16:20.829Z,13.80
2022-10-02T06:18:55.646Z,13.80
2022-10-02T06:21:33.954Z,13.80
2022-10-02T06:24:10.305Z,13.90
2022-10-02T06:26:48.361Z,13.90
2022-10-02T06:29:27.179Z,14.00
2022-10-02T06:32:07.549Z,14.00
2022-10-02T06:34:36.316Z,14.10
2022-10-02T06:37:37.893Z,14.20
2022-10-02T06:40:43.977Z,14.30
2022-10-02T06:43:30.998Z,14.60
2022-10-02T06:46:10.874Z,14.70
2022-10-02T06:48:48.749Z,14.60
2022-10-02T06:51:26.944Z,14.60
2022-10-02T06:54:12.115Z,14.60
2022-10-02T06:56:53.874Z,14.50
2022-10-02T06:59:37.401Z,14.50
2022-10-02T07:02:19.789Z,14.50
2022-10-02T07:04:58.885Z,14.50
2022-10-02T07:07:43.517Z,14.60
2022-10-02T07:10:26.229Z,14.70
2022-10-02T07:13:19.196Z,14.80
2022-10-02T07:16:23.981Z,15.30
2022-10-02T07:19:31.915Z,14.90
2022-10-02T07:22:39.493Z,15.00
2022-10-02T07:25:16.534Z,15.10
2022-10-02T07:27:53.692Z,15.10
2022-10-02T07:30:22.611Z,15.20
2022-10-02T07:32:59.479Z,15.20
2022-10-02T07:35:44.281Z,15.30
2022-10-02T07:38:45.315Z,15.40
2022-10-02T07:41:25.766Z,15.40
2022-10-02T07:44:03.593Z,15.50
2022-10-02T07:46:42.076Z,15.50
2022-10-02T07:49:36.806Z,15.40
2022-10-02T07:52:19.195Z,15.50
2022-10-02T07:55:00.581Z,15.60
2022-10-02T07:57:46.767Z,15.70
2022-10-02T08:00:17.000Z,15.70
2022-10-02T08:02:51.682Z,15.70
2022-10-02T08:05:23.561Z,15.70
2022-10-02T08:07:59.578Z,15.60
2022-10-02T08:10:33.266Z,15.50
2022-10-02T08:13:08.375Z,15.50
2022-10-02T08:15:40.044Z,15.60
2022-10-02T08:18:33.620Z,15.40
2022-10-02T08:21:05.493Z,15.40
2022-10-02T08:23:41.548Z,15.50
2022-10-02T08:26:18.250Z,15.60
2022-10-02T08:28:53.368Z,15.80
2022-10-02T08:31:24.176Z,15.90
2022-10-02T08:33:53.149Z,16.00
2022-10-02T08:37:01.846Z,16.00
2022-10-02T08:39:52.326Z,15.60
2022-10-02T08:43:06.699Z,15.80
2022-10-02T08:46:03.527Z,15.80
2022-10-02T08:49:03.182Z,15.70
2022-10-02T08:52:04.664Z,15.80
2022-10-02T08:55:15.525Z,16.70
2022-10-02T08:58:16.572Z,16.50
2022-10-02T09:01:35.308Z,16.20
2022-10-02T09:04:42.209Z,16.10
2022-10-02T09:07:56.565Z,16.10
2022-10-02T09:11:26.080Z,16.00
2022-10-02T09:14:58.949Z,15.90
2022-10-02T09:17:44.902Z,16.00
2022-10-02T09:21:11.561Z,15.90
2022-10-02T09:24:13.733Z,16.10
2022-10-02T09:27:18.357Z,16.10
2022-10-02T09:30:27.318Z,16.30
2022-10-02T09:33:46.503Z,16.50
2022-10-02T09:36:40.848Z,16.60
2022-10-02T09:39:47.754Z,16.70
2022-10-02T09:43:13.119Z,16.80
2022-10-02T09:46:26.993Z,16.90
2022-10-02T09:49:34.487Z,16.90
2022-10-02T09:52:40.619Z,16.90
2022-10-02T09:55:45.078Z,17.00
2022-10-02T09:58:49.515Z,17.00
2022-10-02T10:01:53.083Z,17.00
2022-10-02T10:05:09.018Z,17.10
2022-10-02T10:08:03.692Z,17.30
2022-10-02T10:11:11.912Z,18.20
2022-10-02T10:14:21.627Z,18.90
2022-10-02T10:17:26.199Z,19.10
2022-10-02T10:20:31.303Z,19.30
2022-10-02T10:23:16.879Z,18.60
2022-10-02T10:25:59.158Z,18.20
2022-10-02T10:29:05.047Z,18.00
2022-10-02T10:32:21.737Z,18.10
2022-10-02T10:35:21.546Z,18.30
2022-10-02T10:38:18.176Z,18.40
2022-10-02T10:41:18.142Z,18.60
2022-10-02T10:44:29.996Z,18.50
2022-10-02T10:47:18.508Z,18.90
2022-10-02T10:50:24.938Z,19.50
2022-10-02T10:53:21.522Z,19.90
2022-10-02T10:56:26.407Z,20.10
2022-10-02T10:59:25.481Z,20.60
2022-10-02T11:02:14.681Z,20.80
2022-10-02T11:05:02.780Z,20.80
2022-10-02T11:07:46.039Z,20.20
2022-10-02T11:10:31.219Z,19.80
2022-10-02T11:13:16.449Z,19.40
2022-10-02T11:16:19.433Z,20.10
2022-10-02T11:19:14.974Z,20.50
2022-10-02T11:22:26.164Z,20.40
2022-10-02T11:25:18.126Z,20.00
2022-10-02T11:28:18.928Z,19.90
2022-10-02T11:30:56.654Z,19.70
2022-10-02T11:34:03.946Z,19.20
2022-10-02T11:36:49.033Z,18.90
2022-10-02T11:39:43.994Z,18.80
2022-10-02T11:42:27.231Z,18.70
2022-10-02T11:45:22.323Z,18.70
2022-10-02T11:48:20.781Z,18.90
2022-10-02T11:51:02.159Z,19.10
2022-10-02T11:53:41.507Z,19.50
2022-10-02T11:56:29.529Z,19.90
2022-10-02T11:59:11.594Z,20.10
2022-10-02T12:01:47.920Z,20.20
2022-10-02T12:04:36.581Z,20.20
2022-10-02T12:07:20.009Z,20.40
2022-10-02T12:10:04.953Z,20.50
2022-10-02T12:12:51.779Z,20.70
2022-10-02T12:15:32.165Z,20.80
2022-10-02T12:18:21.871Z,20.80
2022-10-02T12:21:23.044Z,20.70
2022-10-02T12:24:14.800Z,20.40
2022-10-02T12:27:04.431Z,20.20
2022-10-02T12:29:55.119Z,20.40
2022-10-02T12:32:42.287Z,20.40
2022-10-02T12:35:29.135Z,20.20
2022-10-02T12:38:09.593Z,19.30
2022-10-02T12:40:50.815Z,19.50
2022-10-02T12:44:04.042Z,19.40
2022-10-02T12:47:04.362Z,19.10
2022-10-02T12:49:45.978Z,18.90
2022-10-02T12:52:45.324Z,18.80
2022-10-02T12:55:52.853Z,18.70
2022-10-02T12:58:29.865Z,18.60
2022-10-02T13:01:31.897Z,18.50
2022-10-02T13:04:39.387Z,18.40
2022-10-02T13:07:58.259Z,18.40
2022-10-02T13:10:31.098Z,18.40
2022-10-02T13:13:16.454Z,19.00
2022-10-02T13:16:02.661Z,19.30
2022-10-02T13:18:59.087Z,19.50
2022-10-02T13:21:39.307Z,19.30
2022-10-02T13:24:22.414Z,19.00
2022-10-02T13:26:57.911Z,19.20
2022-10-02T13:30:00.566Z,18.80
2022-10-02T13:32:46.421Z,18.80
2022-10-02T13:35:47.968Z,18.80
2022-10-02T13:38:48.671Z,18.90
2022-10-02T13:41:30.486Z,18.80
2022-10-02T13:44:16.207Z,18.80
2022-10-02T13:47:13.294Z,19.20
2022-10-02T13:50:08.096Z,19.70
2022-10-02T13:52:51.759Z,20.10
2022-10-02T13:55:25.893Z,20.40
2022-10-02T13:58:23.172Z,20.50
2022-10-02T14:01:14.240Z,20.70
2022-10-02T14:04:11.443Z,20.80
2022-10-02T14:06:44.112Z,20.70
2022-10-02T14:09:34.913Z,20.70
2022-10-02T14:12:26.210Z,20.80
2022-10-02T14:15:19.502Z,20.70
2022-10-02T14:18:15.235Z,20.70
2022-10-02T14:20:52.977Z,20.70
2022-10-02T14:23:45.791Z,20.80
2022-10-02T14:26:28.221Z,20.70
2022-10-02T14:29:21.965Z,20.80
2022-10-02T14:32:21.328Z,20.70
2022-10-02T14:35:19.310Z,20.70
2022-10-02T14:38:27.370Z,20.50
2022-10-02T14:40:57.793Z,20.50
2022-10-02T14:44:15.253Z,20.50
2022-10-02T14:47:03.051Z,20.30
2022-10-02T14:49:56.837Z,20.20
2022-10-02T14:52:46.312Z,20.10
2022-10-02T14:55:31.960Z,19.90
2022-10-02T14:58:12.278Z,19.80
2022-10-02T15:00:58.246Z,19.70
2022-10-02T15:03:42.826Z,19.70
2022-10-02T15:06:24.956Z,19.80
2022-10-02T15:09:00.033Z,19.90
2022-10-02T15:11:57.415Z,19.90
2022-10-02T15:14:36.574Z,19.80
2022-10-02T15:17:30.446Z,20.00
2022-10-02T15:20:06.680Z,20.00
2022-10-02T15:22:41.909Z,19.90
2022-10-02T15:25:18.975Z,19.80
2022-10-02T15:28:24.203Z,19.80
2022-10-02T15:31:09.586Z,19.80
2022-10-02T15:33:46.510Z,19.80
2022-10-02T15:36:36.195Z,19.80
2022-10-02T15:39:16.544Z,19.70
2022-10-02T15:41:49.771Z,19.70
2022-10-02T15:44:55.240Z,19.60
2022-10-02T15:47:54.153Z,19.50
2022-10-02T15:50:32.795Z,19.40
2022-10-02T15:53:22.219Z,19.40
2022-10-02T15:55:57.734Z,19.30
2022-10-02T15:58:41.159Z,19.40
2022-10-02T16:01:26.523Z,19.40
2022-10-02T16:04:02.423Z,18.80
2022-10-02T16:06:53.583Z,18.50
2022-10-02T16:09:48.239Z,18.20
2022-10-02T16:12:35.819Z,17.90
2022-10-02T16:15:18.244Z,17.70
2022-10-02T16:18:19.098Z,17.60
2022-10-02T16:21:08.517Z,17.40
2022-10-02T16:24:14.977Z,17.20
2022-10-02T16:27:14.575Z,17.00
2022-10-02T16:29:53.652Z,17.00
2022-10-02T16:32:32.574Z,16.90
2022-10-02T16:35:25.494Z,16.80
2022-10-02T16:38:01.543Z,16.70
2022-10-02T16:40:41.577Z,16.60
2022-10-02T16:43:49.087Z,16.50
2022-10-02T16:46:27.816Z,16.50
2022-10-02T16:49:03.138Z,16.40
2022-10-02T16:51:45.834Z,16.30
2022-10-02T16:54:20.503Z,16.30
2022-10-02T16:57:03.709Z,16.20
2022-10-02T16:59:43.797Z,16.20
2022-10-02T17:02:21.314Z,16.10
2022-10-02T17:05:05.978Z,16.10
2022-10-02T17:07:44.632Z,16.00
2022-10-02T17:10:24.398Z,15.90
2022-10-02T17:13:01.970Z,15.90
2022-10-02T17:15:40.627Z,15.80
2022-10-02T17:18:25.992Z,15.70
2022-10-02T17:21:03.895Z,15.60
2022-10-02T17:23:54.288Z,15.60
2022-10-02T17:26:33.534Z,15.50
2022-10-02T17:29:21.763Z,15.40
2022-10-02T17:31:57.923Z,15.40
2022-10-02T17:34:28.541Z,15.40
2022-10-02T17:37:08.014Z,15.40
2022-10-02T17:39:49.904Z,15.00
2022-10-02T17:42:30.652Z,15.30
2022-10-02T17:45:10.070Z,15.30
2022-10-02T17:47:54.498Z,15.30
2022-10-02T17:50:53.744Z,15.30
2022-10-02T17:54:08.190Z,15.20
2022-10-02T17:56:56.291Z,15.20
2022-10-02T17:59:56.579Z,15.10
2022-10-02T18:02:57.862Z,15.30
2022-10-02T18:05:38.669Z,15.00
2022-10-02T18:08:34.943Z,14.90
2022-10-02T18:11:09.223Z,14.90
2022-10-02T18:13:58.708Z,14.80
2022-10-02T18:16:39.124Z,14.70
2022-10-02T18:19:37.842Z,14.70
2022-10-02T18:22:27.170Z,14.60
2022-10-02T18:25:23.096Z,14.60
2022-10-02T18:28:08.316Z,14.50
2022-10-02T18:30:47.764Z,14.50
2022-10-02T18:33:54.361Z,14.50
2022-10-02T18:36:39.877Z,14.40
2022-10-02T18:39:23.654Z,14.50
2022-10-02T18:41:58.691Z,14.40
2022-10-02T18:44:48.216Z,14.40
2022-10-02T18:47:28.148Z,14.40
2022-10-02T18:50:23.062Z,14.30
2022-10-02T18:53:10.748Z,14.30
2022-10-02T18:56:03.368Z,14.30
2022-10-02T18:58:50.861Z,14.20
2022-10-02T19:01:48.212Z,14.20
2022-10-02T19:04:39.892Z,14.20
2022-10-02T19:07:15.144Z,14.10
2022-10-02T19:09:47.016Z,14.10
2022-10-02T19:12:18.651Z,14.10
2022-10-02T19:14:47.947Z,14.00
2022-10-02T19:17:27.094Z,14.00
2022-10-02T19:19:56.911Z,14.00
2022-10-02T19:22:31.597Z,13.90
2022-10-02T19:25:22.197Z,13.90
2022-10-02T19:27:58.340Z,13.90
2022-10-02T19:30:36.926Z,13.80
2022-10-02T19:33:13.638Z,13.80
2022-10-02T19:35:50.890Z,13.80
2022-10-02T19:38:34.693Z,13.60
2022-10-02T19:41:25.420Z,13.70
2022-10-02T19:44:15.418Z,13.70
2022-10-02T19:46:53.594Z,13.70
2022-10-02T19:49:30.266Z,13.40
2022-10-02T19:52:00.908Z,13.50
2022-10-02T19:54:36.443Z,13.60
2022-10-02T19:57:15.315Z,14.10
2022-10-02T19:59:48.930Z,13.60
2022-10-02T20:02:37.434Z,13.60
2022-10-02T20:05:16.904Z,13.50
2022-10-02T20:07:47.254Z,13.50
2022-10-02T20:10:21.438Z,13.50
2022-10-02T20:12:57.794Z,13.50
2022-10-02T20:15:49.478Z,13.40
2022-10-02T20:18:25.048Z,13.40
2022-10-02T20:20:57.310Z,13.40
2022-10-02T20:23:29.855Z,13.30
2022-10-02T20:26:09.235Z,13.40
2022-10-02T20:28:46.642Z,13.40
2022-10-02T20:31:20.187Z,13.40
2022-10-02T20:33:54.026Z,13.40
2022-10-02T20:36:27.656Z,13.40
2022-10-02T20:39:02.752Z,13.40
2022-10-02T20:41:40.040Z,13.40
2022-10-02T20:44:13.155Z,13.40
2022-10-02T20:47:32.176Z,13.50
2022-10-02T20:50:41.512Z,13.50
2022-10-02T20:53:46.889Z,13.40
2022-10-02T20:56:32.442Z,13.40
2022-10-02T20:59:29.238Z,13.50
2022-10-02T21:02:15.063Z,13.50
2022-10-02T21:05:11.673Z,13.50
2022-10-02T21:08:08.939Z,13.40
2022-10-02T21:11:19.430Z,13.40
2022-10-02T21:14:31.315Z,13.40
2022-10-02T21:17:30.991Z,13.50
2022-10-02T21:20:49.692Z,13.20
2022-10-02T21:23:42.783Z,13.20
2022-10-02T21:27:01.093Z,13.10
2022-10-02T21:29:56.124Z,13.10
2022-10-02T21:32:41.721Z,13.00
2022-10-02T21:35:32.270Z,13.00
2022-10-02T21:38:20.958Z,12.90
2022-10-02T21:41:25.227Z,12.90
2022-10-02T21:44:37.852Z,12.80
2022-10-02T21:47:41.561Z,12.80
2022-10-02T21:50:46.331Z,12.80
2022-10-02T21:53:54.984Z,12.70
2022-10-02T21:56:56.582Z,13.00
2022-10-02T21:59:53.080Z,12.70
2022-10-02T22:02:39.237Z,12.60
2022-10-02T22:05:34.979Z,12.60
2022-10-02T22:08:21.421Z,12.60
2022-10-02T22:10:56.248Z,12.60
2022-10-02T22:13:30.618Z,12.60
2022-10-02T22:16:13.643Z,12.60
2022-10-02T22:18:54.139Z,12.50
2022-10-02T22:25:01.813Z,12.60
2022-10-02T22:27:53.193Z,12.60
2022-10-02T22:30:25.886Z,12.50
2022-10-02T22:33:27.628Z,12.60
2022-10-02T22:36:17.847Z,12.60
2022-10-02T22:38:50.672Z,12.70
2022-10-02T22:41:29.316Z,12.60
2022-10-02T22:44:00.861Z,12.70
2022-10-02T22:46:41.543Z,12.70
2022-10-02T22:49:21.078Z,12.70
2022-10-02T22:52:00.328Z,12.70
2022-10-02T22:54:37.053Z,12.70
2022-10-02T22:57:22.981Z,12.70
2022-10-02T23:00:00.485Z,12.60
2022-10-02T23:02:34.248Z,12.30
2022-10-02T23:05:11.361Z,12.50
2022-10-02T23:07:46.844Z,12.50
2022-10-02T23:10:27.426Z,12.50
2022-10-02T23:13:07.583Z,12.50
2022-10-02T23:15:47.532Z,12.50
2022-10-02T23:18:25.928Z,12.90
2022-10-02T23:21:02.872Z,12.40
2022-10-02T23:23:37.665Z,12.40
2022-10-02T23:26:12.979Z,12.30
2022-10-02T23:28:52.124Z,12.00
2022-10-02T23:31:24.522Z,12.20
2022-10-02T23:33:59.810Z,12.20
2022-10-02T23:36:36.239Z,12.20
2022-10-02T23:39:14.300Z,12.20
2022-10-02T23:41:48.016Z,12.20
2022-10-02T23:44:28.773Z,12.20
2022-10-02T23:47:26.028Z,12.10
2022-10-02T23:49:56.437Z,12.10
2022-10-02T23:53:01.395Z,12.10
2022-10-02T23:55:46.055Z,12.10
2022-10-02T23:58:40.455Z,12.10
